MSC Regina — 3FGF9 — position and weather

sailwx.info

Track history (hours):
 
Tides and Currents Weather Stations Pressure Air Temp Water Temp Dewpoint Dewpoint Depression Visibility Wind Speed Wind Dir Waves Ship Positions

MSC Regina

Last reported at 2015-Jul-31 04:18 UTC. Time now 2015-Jul-31 13:26 UTC.
Position N 36°04' W 008°38'.

Length 259 m; draft 10.3 m.

Type: Ship (hazmat cat A). MMSI: 357331980.

Date/timePositionNaut miles runAvg speedWind from/ knotsBaromVisibWave heightAir tempDewpointWater temp
2015-Jul-31 04:18N 36°04' W 008°38'4020.1
2015-Jul-31 02:18N 36°23' W 009°22'3520.1
2015-Jul-31 00:33N 36°37' W 010°02'  
2015-Jul-24 12:33N 46°36' W 071°59'1514.9
2015-Jul-24 11:33N 46°27' W 072°16'1414.2
2015-Jul-24 10:33N 46°19' W 072°33'1212.2
2015-Jul-24 09:33N 46°13' W 072°49'48 1.0
2015-Jul-22 10:25N 45°34' W 073°31'0 0.0
2015-Jul-22 09:25N 45°34' W 073°31'0 0.0
2015-Jul-22 08:31N 45°34' W 073°31'0 0.0
2015-Jul-22 05:32N 45°34' W 073°31'6 5.1
2015-Jul-22 04:20N 45°40' W 073°28'3810.0
2015-Jul-22 00:33N 46°11' W 072°55'1212.4
2015-Jul-21 23:33N 46°16' W 072°39'8 8.1
2015-Jul-21 22:33N 46°21' W 072°31'1111.4
2015-Jul-21 21:33N 46°27' W 072°16'11 9.8
2015-Jul-21 20:26N 46°34' W 072°04'1011.0
2015-Jul-21 19:30N 46°41' W 071°53'  
Track history (hours):
 
Tides and Currents Weather Stations Pressure Air Temp Water Temp Dewpoint Dewpoint Depression Visibility Wind Speed Wind Dir Waves Ship Positions

MSC Regina

Last reported at 2015-Jul-31 04:18 UTC. Time now 2015-Jul-31 13:26 UTC.
Position N 36°04' W 008°38'.

Length 259 m; draft 10.3 m.

Type: Ship (hazmat cat A). MMSI: 357331980.

Date/timePositionNaut miles runAvg speedWind from/ knotsBaromVisibWave heightAir tempDewpointWater temp
2015-Jul-31 04:18N 36°04' W 008°38'4020.1
2015-Jul-31 02:18N 36°23' W 009°22'3520.1
2015-Jul-31 00:33N 36°37' W 010°02'  
2015-Jul-24 12:33N 46°36' W 071°59'1514.9
2015-Jul-24 11:33N 46°27' W 072°16'1414.2
2015-Jul-24 10:33N 46°19' W 072°33'1212.2
2015-Jul-24 09:33N 46°13' W 072°49'48 1.0
2015-Jul-22 10:25N 45°34' W 073°31'0 0.0
2015-Jul-22 09:25N 45°34' W 073°31'0 0.0
2015-Jul-22 08:31N 45°34' W 073°31'0 0.0
2015-Jul-22 05:32N 45°34' W 073°31'6 5.1
2015-Jul-22 04:20N 45°40' W 073°28'3810.0
2015-Jul-22 00:33N 46°11' W 072°55'1212.4
2015-Jul-21 23:33N 46°16' W 072°39'8 8.1
2015-Jul-21 22:33N 46°21' W 072°31'1111.4
2015-Jul-21 21:33N 46°27' W 072°16'11 9.8
2015-Jul-21 20:26N 46°34' W 072°04'1011.0
2015-Jul-21 19:30N 46°41' W 071°53'  

Dump ship's entire track history